Weather at And Port Airport

Public forecast

Using degrees Celsius for public forecast. Weather courtesy of forecast.io.

Closest aviation weather report (METAR) to And Port Airport

Report is more than 6 hours old.

Closest report is Licenciado y General Ignacio Lopez Rayon Airport, 38.0 nm (70.4 km) ENE. Retrieved 2020/10/30 00:40 UTC (9 hours ago):

MMPN 300040Z 00000KT 5SM FEW120 SCT270 21/18 A3012 RMK 8/031 HZY TCU

Closest aviation forecast (TAF) to And Port Airport

Closest forecast is Licenciado y General Ignacio Lopez Rayon Airport, 38.0 nm (70.4 km) ENE. Retrieved 2020/10/30 06:56 UTC (3 hours ago):

TAF MMPN 300552Z 3006/3106 00000KT 5SM HZ SCT020 TEMPO 3011/3015 2SM BR BKN010 FM301800 20010KT P6SM SCT025 TEMPO 3022/3102 6SM TSRA BKN015CB